sensor_id;sensor_type;location;lat;lon;timestamp;P1;durP1;ratioP1;P2;durP2;ratioP2
23490;SDS011;14683;50.038;8.078;2023-06-22T03:03:22;10.23;;;9.13;;
23490;SDS011;14683;50.038;8.078;2023-06-22T03:06:23;10.68;;;9.55;;
23490;SDS011;14683;50.038;8.078;2023-06-22T03:09:29;9.82;;;8.00;;
23490;SDS011;14683;50.038;8.078;2023-06-22T03:12:32;9.43;;;8.52;;
23490;SDS011;14683;50.038;8.078;2023-06-22T03:15:33;9.60;;;8.52;;
23490;SDS011;14683;50.038;8.078;2023-06-22T03:18:35;9.60;;;8.57;;
23490;SDS011;14683;50.038;8.078;2023-06-22T03:21:37;8.57;;;7.78;;
23490;SDS011;14683;50.038;8.078;2023-06-22T03:24:41;9.68;;;8.73;;
23490;SDS011;14683;50.038;8.078;2023-06-22T03:27:43;8.85;;;7.82;;
23490;SDS011;14683;50.038;8.078;2023-06-22T03:30:47;8.68;;;7.88;;
23490;SDS011;14683;50.038;8.078;2023-06-22T03:33:49;9.75;;;8.75;;
23490;SDS011;14683;50.038;8.078;2023-06-22T03:36:50;10.13;;;8.40;;
23490;SDS011;14683;50.038;8.078;2023-06-22T03:39:51;9.27;;;8.38;;
23490;SDS011;14683;50.038;8.078;2023-06-22T03:42:54;8.95;;;8.05;;
23490;SDS011;14683;50.038;8.078;2023-06-22T03:45:55;9.18;;;8.27;;
23490;SDS011;14683;50.038;8.078;2023-06-22T03:48:56;8.15;;;7.32;;
23490;SDS011;14683;50.038;8.078;2023-06-22T03:51:59;8.80;;;7.90;;
23490;SDS011;14683;50.038;8.078;2023-06-22T03:55:01;9.38;;;8.40;;
23490;SDS011;14683;50.038;8.078;2023-06-22T03:58:02;9.45;;;8.48;;
23490;SDS011;14683;50.038;8.078;2023-06-22T04:01:06;8.88;;;7.97;;
23490;SDS011;14683;50.038;8.078;2023-06-22T04:04:07;8.75;;;7.90;;
23490;SDS011;14683;50.038;8.078;2023-06-22T04:07:08;9.45;;;8.48;;
23490;SDS011;14683;50.038;8.078;2023-06-22T04:10:09;10.35;;;8.93;;
23490;SDS011;14683;50.038;8.078;2023-06-22T04:13:11;9.65;;;8.75;;
23490;SDS011;14683;50.038;8.078;2023-06-22T04:16:12;10.45;;;8.60;;
23490;SDS011;14683;50.038;8.078;2023-06-22T04:19:13;10.57;;;8.77;;
23490;SDS011;14683;50.038;8.078;2023-06-22T04:22:17;10.00;;;8.45;;
23490;SDS011;14683;50.038;8.078;2023-06-22T04:25:18;10.38;;;8.85;;
23490;SDS011;14683;50.038;8.078;2023-06-22T04:28:19;10.13;;;8.52;;
23490;SDS011;14683;50.038;8.078;2023-06-22T04:31:20;9.80;;;8.70;;
23490;SDS011;14683;50.038;8.078;2023-06-22T04:34:22;10.15;;;8.93;;
23490;SDS011;14683;50.038;8.078;2023-06-22T04:37:24;9.57;;;8.68;;
23490;SDS011;14683;50.038;8.078;2023-06-22T04:40:25;12.23;;;8.68;;
23490;SDS011;14683;50.038;8.078;2023-06-22T04:43:26;9.73;;;8.70;;
23490;SDS011;14683;50.038;8.078;2023-06-22T04:46:30;9.93;;;8.93;;
23490;SDS011;14683;50.038;8.078;2023-06-22T04:49:32;10.57;;;8.55;;
23490;SDS011;14683;50.038;8.078;2023-06-22T04:52:38;9.07;;;8.18;;
23490;SDS011;14683;50.038;8.078;2023-06-22T04:55:39;10.55;;;9.45;;
23490;SDS011;14683;50.038;8.078;2023-06-22T04:58:42;9.85;;;8.77;;
23490;SDS011;14683;50.038;8.078;2023-06-22T05:01:43;11.55;;;9.18;;
23490;SDS011;14683;50.038;8.078;2023-06-22T05:04:44;11.68;;;9.73;;
23490;SDS011;14683;50.038;8.078;2023-06-22T05:07:46;11.60;;;9.65;;
23490;SDS011;14683;50.038;8.078;2023-06-22T05:10:49;10.30;;;9.23;;
23490;SDS011;14683;50.038;8.078;2023-06-22T05:13:50;10.95;;;9.77;;
23490;SDS011;14683;50.038;8.078;2023-06-22T05:16:51;11.75;;;10.48;;
23490;SDS011;14683;50.038;8.078;2023-06-22T05:19:59;11.95;;;10.52;;
23490;SDS011;14683;50.038;8.078;2023-06-22T05:23:00;10.35;;;9.13;;
23490;SDS011;14683;50.038;8.078;2023-06-22T05:26:01;11.48;;;9.60;;
23490;SDS011;14683;50.038;8.078;2023-06-22T05:29:02;13.60;;;10.15;;
23490;SDS011;14683;50.038;8.078;2023-06-22T05:32:04;11.77;;;10.55;;
23490;SDS011;14683;50.038;8.078;2023-06-22T05:35:05;10.60;;;9.50;;
23490;SDS011;14683;50.038;8.078;2023-06-22T05:38:07;13.10;;;10.27;;
23490;SDS011;14683;50.038;8.078;2023-06-22T05:41:08;12.27;;;10.48;;
23490;SDS011;14683;50.038;8.078;2023-06-22T05:44:10;10.63;;;9.35;;
23490;SDS011;14683;50.038;8.078;2023-06-22T05:47:11;14.30;;;10.45;;
23490;SDS011;14683;50.038;8.078;2023-06-22T05:50:12;12.38;;;11.02;;
23490;SDS011;14683;50.038;8.078;2023-06-22T05:53:13;14.07;;;10.75;;
23490;SDS011;14683;50.038;8.078;2023-06-22T05:56:14;11.43;;;9.57;;
23490;SDS011;14683;50.038;8.078;2023-06-22T05:59:16;11.32;;;9.82;;
23490;SDS011;14683;50.038;8.078;2023-06-22T06:02:17;10.90;;;9.80;;
23490;SDS011;14683;50.038;8.078;2023-06-22T06:05:18;12.20;;;10.23;;
23490;SDS011;14683;50.038;8.078;2023-06-22T06:08:20;10.88;;;9.77;;
23490;SDS011;14683;50.038;8.078;2023-06-22T06:11:21;12.73;;;9.82;;
23490;SDS011;14683;50.038;8.078;2023-06-22T06:14:22;10.15;;;9.15;;
23490;SDS011;14683;50.038;8.078;2023-06-22T06:17:24;10.57;;;9.50;;
23490;SDS011;14683;50.038;8.078;2023-06-22T06:20:25;10.60;;;9.23;;
23490;SDS011;14683;50.038;8.078;2023-06-22T06:23:28;9.52;;;8.65;;
23490;SDS011;14683;50.038;8.078;2023-06-22T06:26:29;10.10;;;8.93;;
23490;SDS011;14683;50.038;8.078;2023-06-22T06:29:33;11.93;;;9.18;;
23490;SDS011;14683;50.038;8.078;2023-06-22T06:32:34;9.77;;;8.80;;
23490;SDS011;14683;50.038;8.078;2023-06-22T06:35:35;11.93;;;10.60;;
23490;SDS011;14683;50.038;8.078;2023-06-22T06:38:36;10.40;;;9.40;;
23490;SDS011;14683;50.038;8.078;2023-06-22T06:41:37;12.40;;;9.02;;
23490;SDS011;14683;50.038;8.078;2023-06-22T06:44:39;10.60;;;9.50;;
23490;SDS011;14683;50.038;8.078;2023-06-22T06:47:40;12.15;;;10.65;;
23490;SDS011;14683;50.038;8.078;2023-06-22T06:50:41;13.45;;;10.43;;
23490;SDS011;14683;50.038;8.078;2023-06-22T06:53:44;11.95;;;9.77;;
23490;SDS011;14683;50.038;8.078;2023-06-22T06:56:45;11.00;;;9.90;;
23490;SDS011;14683;50.038;8.078;2023-06-22T06:59:49;10.48;;;9.40;;
23490;SDS011;14683;50.038;8.078;2023-06-22T07:02:50;10.52;;;9.30;;
23490;SDS011;14683;50.038;8.078;2023-06-22T07:05:51;12.43;;;10.02;;
23490;SDS011;14683;50.038;8.078;2023-06-22T07:08:52;12.68;;;10.25;;
23490;SDS011;14683;50.038;8.078;2023-06-22T07:11:53;10.35;;;9.32;;
23490;SDS011;14683;50.038;8.078;2023-06-22T07:14:57;12.00;;;9.80;;
23490;SDS011;14683;50.038;8.078;2023-06-22T07:18:02;10.20;;;9.30;;
23490;SDS011;14683;50.038;8.078;2023-06-22T07:21:03;9.35;;;8.45;;
23490;SDS011;14683;50.038;8.078;2023-06-22T07:24:07;9.52;;;8.60;;
23490;SDS011;14683;50.038;8.078;2023-06-22T07:27:08;11.05;;;8.48;;
23490;SDS011;14683;50.038;8.078;2023-06-22T07:30:11;9.68;;;8.68;;
23490;SDS011;14683;50.038;8.078;2023-06-22T07:33:13;10.07;;;8.93;;
23490;SDS011;14683;50.038;8.078;2023-06-22T07:36:14;9.88;;;8.70;;
23490;SDS011;14683;50.038;8.078;2023-06-22T07:39:15;9.38;;;8.40;;
23490;SDS011;14683;50.038;8.078;2023-06-22T07:42:16;10.77;;;9.60;;
23490;SDS011;14683;50.038;8.078;2023-06-22T07:45:19;10.20;;;9.13;;
23490;SDS011;14683;50.038;8.078;2023-06-22T07:48:20;9.15;;;8.25;;
23490;SDS011;14683;50.038;8.078;2023-06-22T07:51:22;10.45;;;8.40;;
23490;SDS011;14683;50.038;8.078;2023-06-22T07:54:24;10.32;;;9.00;;
23490;SDS011;14683;50.038;8.078;2023-06-22T07:57:25;10.48;;;9.40;;
23490;SDS011;14683;50.038;8.078;2023-06-22T08:00:33;9.93;;;8.93;;
23490;SDS011;14683;50.038;8.078;2023-06-22T08:03:35;10.23;;;8.70;;
23490;SDS011;14683;50.038;8.078;2023-06-22T08:06:36;9.98;;;8.93;;
23490;SDS011;14683;50.038;8.078;2023-06-22T08:09:37;10.43;;;9.32;;
23490;SDS011;14683;50.038;8.078;2023-06-22T08:12:39;11.75;;;10.30;;
23490;SDS011;14683;50.038;8.078;2023-06-22T08:15:40;10.63;;;9.60;;
23490;SDS011;14683;50.038;8.078;2023-06-22T08:18:41;11.07;;;9.90;;
23490;SDS011;14683;50.038;8.078;2023-06-22T08:21:44;10.60;;;9.60;;
23490;SDS011;14683;50.038;8.078;2023-06-22T08:24:45;9.82;;;8.88;;
23490;SDS011;14683;50.038;8.078;2023-06-22T08:27:46;9.95;;;8.95;;
23490;SDS011;14683;50.038;8.078;2023-06-22T08:30:49;10.38;;;9.32;;
23490;SDS011;14683;50.038;8.078;2023-06-22T08:33:50;13.75;;;9.07;;
23490;SDS011;14683;50.038;8.078;2023-06-22T08:36:51;10.23;;;9.23;;
23490;SDS011;14683;50.038;8.078;2023-06-22T08:39:53;10.27;;;9.23;;
23490;SDS011;14683;50.038;8.078;2023-06-22T08:42:54;12.18;;;10.35;;
23490;SDS011;14683;50.038;8.078;2023-06-22T08:45:55;9.95;;;9.05;;
23490;SDS011;14683;50.038;8.078;2023-06-22T08:48:57;11.18;;;8.55;;
23490;SDS011;14683;50.038;8.078;2023-06-22T08:51:58;9.75;;;8.75;;
23490;SDS011;14683;50.038;8.078;2023-06-22T08:54:59;10.90;;;9.80;;
23490;SDS011;14683;50.038;8.078;2023-06-22T08:58:01;11.52;;;9.82;;
23490;SDS011;14683;50.038;8.078;2023-06-22T09:01:02;10.85;;;9.15;;
23490;SDS011;14683;50.038;8.078;2023-06-22T09:04:03;10.05;;;8.68;;
23490;SDS011;14683;50.038;8.078;2023-06-22T09:07:06;11.63;;;9.15;;
23490;SDS011;14683;50.038;8.078;2023-06-22T09:10:07;12.27;;;9.48;;
23490;SDS011;14683;50.038;8.078;2023-06-22T09:13:09;10.77;;;9.23;;
23490;SDS011;14683;50.038;8.078;2023-06-22T09:16:10;10.63;;;9.13;;
23490;SDS011;14683;50.038;8.078;2023-06-22T09:19:12;11.23;;;8.63;;
23490;SDS011;14683;50.038;8.078;2023-06-22T09:22:14;9.20;;;8.30;;
23490;SDS011;14683;50.038;8.078;2023-06-22T09:25:15;10.52;;;9.40;;
23490;SDS011;14683;50.038;8.078;2023-06-22T09:28:17;11.88;;;10.05;;
23490;SDS011;14683;50.038;8.078;2023-06-22T09:31:18;9.90;;;8.90;;
23490;SDS011;14683;50.038;8.078;2023-06-22T09:34:26;10.75;;;9.25;;
23490;SDS011;14683;50.038;8.078;2023-06-22T09:37:27;10.38;;;9.38;;
23490;SDS011;14683;50.038;8.078;2023-06-22T09:40:28;9.88;;;8.43;;
23490;SDS011;14683;50.038;8.078;2023-06-22T09:43:29;10.63;;;9.55;;
23490;SDS011;14683;50.038;8.078;2023-06-22T09:46:31;9.43;;;8.43;;
23490;SDS011;14683;50.038;8.078;2023-06-22T09:49:33;12.18;;;9.38;;
23490;SDS011;14683;50.038;8.078;2023-06-22T09:52:34;9.32;;;8.43;;
23490;SDS011;14683;50.038;8.078;2023-06-22T09:55:35;9.77;;;8.80;;
23490;SDS011;14683;50.038;8.078;2023-06-22T09:58:36;10.57;;;9.60;;
23490;SDS011;14683;50.038;8.078;2023-06-22T10:01:37;9.57;;;8.57;;
23490;SDS011;14683;50.038;8.078;2023-06-22T10:04:38;10.20;;;9.18;;
23490;SDS011;14683;50.038;8.078;2023-06-22T10:07:40;9.75;;;8.95;;
23490;SDS011;14683;50.038;8.078;2023-06-22T10:10:44;11.60;;;9.73;;
23490;SDS011;14683;50.038;8.078;2023-06-22T10:13:45;11.27;;;10.07;;
23490;SDS011;14683;50.038;8.078;2023-06-22T10:16:46;10.07;;;9.05;;
23490;SDS011;14683;50.038;8.078;2023-06-22T10:19:47;9.75;;;8.75;;
23490;SDS011;14683;50.038;8.078;2023-06-22T10:22:48;11.00;;;8.95;;
23490;SDS011;14683;50.038;8.078;2023-06-22T10:25:49;9.63;;;8.25;;
23490;SDS011;14683;50.038;8.078;2023-06-22T10:28:50;10.43;;;9.32;;
23490;SDS011;14683;50.038;8.078;2023-06-22T10:31:51;9.63;;;8.45;;
23490;SDS011;14683;50.038;8.078;2023-06-22T10:34:52;12.73;;;8.70;;
23490;SDS011;14683;50.038;8.078;2023-06-22T10:37:54;9.35;;;8.55;;
23490;SDS011;14683;50.038;8.078;2023-06-22T10:40:56;8.60;;;7.80;;
23490;SDS011;14683;50.038;8.078;2023-06-22T10:43:58;9.75;;;7.60;;
23490;SDS011;14683;50.038;8.078;2023-06-22T10:46:59;9.32;;;7.82;;
23490;SDS011;14683;50.038;8.078;2023-06-22T10:50:00;8.05;;;7.25;;
23490;SDS011;14683;50.038;8.078;2023-06-22T10:53:02;8.00;;;7.18;;
23490;SDS011;14683;50.038;8.078;2023-06-22T10:56:03;9.27;;;7.93;;
23490;SDS011;14683;50.038;8.078;2023-06-22T10:59:04;8.10;;;7.30;;
23490;SDS011;14683;50.038;8.078;2023-06-22T11:02:05;7.78;;;7.03;;
23490;SDS011;14683;50.038;8.078;2023-06-22T11:05:07;8.80;;;7.95;;
23490;SDS011;14683;50.038;8.078;2023-06-22T11:08:08;8.57;;;6.65;;
23490;SDS011;14683;50.038;8.078;2023-06-22T11:11:09;11.02;;;7.20;;
23490;SDS011;14683;50.038;8.078;2023-06-22T11:14:10;8.98;;;7.47;;
23490;SDS011;14683;50.038;8.078;2023-06-22T11:17:12;8.15;;;7.32;;
23490;SDS011;14683;50.038;8.078;2023-06-22T11:20:13;7.88;;;7.10;;
23490;SDS011;14683;50.038;8.078;2023-06-22T11:23:17;9.40;;;7.00;;
23490;SDS011;14683;50.038;8.078;2023-06-22T11:26:18;9.02;;;7.07;;
23490;SDS011;14683;50.038;8.078;2023-06-22T11:29:21;8.52;;;7.63;;
23490;SDS011;14683;50.038;8.078;2023-06-22T11:32:23;8.30;;;7.50;;
23490;SDS011;14683;50.038;8.078;2023-06-22T11:35:25;7.82;;;7.03;;
23490;SDS011;14683;50.038;8.078;2023-06-22T11:38:26;10.15;;;7.65;;
23490;SDS011;14683;50.038;8.078;2023-06-22T11:41:27;9.02;;;7.50;;
23490;SDS011;14683;50.038;8.078;2023-06-22T11:44:28;8.93;;;7.55;;
23490;SDS011;14683;50.038;8.078;2023-06-22T11:47:30;10.18;;;7.72;;
23490;SDS011;14683;50.038;8.078;2023-06-22T11:50:31;8.32;;;6.63;;
23490;SDS011;14683;50.038;8.078;2023-06-22T11:53:36;12.63;;;7.57;;
23490;SDS011;14683;50.038;8.078;2023-06-22T11:56:37;8.52;;;7.65;;
23490;SDS011;14683;50.038;8.078;2023-06-22T11:59:38;9.73;;;7.03;;
23490;SDS011;14683;50.038;8.078;2023-06-22T12:02:39;7.72;;;6.93;;
23490;SDS011;14683;50.038;8.078;2023-06-22T12:05:41;8.10;;;7.32;;
23490;SDS011;14683;50.038;8.078;2023-06-22T12:08:42;8.93;;;7.03;;
23490;SDS011;14683;50.038;8.078;2023-06-22T12:11:43;9.93;;;7.20;;
23490;SDS011;14683;50.038;8.078;2023-06-22T12:14:44;8.80;;;7.53;;
23490;SDS011;14683;50.038;8.078;2023-06-22T12:17:45;10.40;;;7.47;;
23490;SDS011;14683;50.038;8.078;2023-06-22T12:20:53;10.95;;;6.97;;
23490;SDS011;14683;50.038;8.078;2023-06-22T12:24:12;8.98;;;7.10;;
23490;SDS011;14683;50.038;8.078;2023-06-22T12:27:14;8.30;;;6.63;;
23490;SDS011;14683;50.038;8.078;2023-06-22T12:30:17;11.57;;;8.07;;
23490;SDS011;14683;50.038;8.078;2023-06-22T12:33:18;10.48;;;7.70;;
23490;SDS011;14683;50.038;8.078;2023-06-22T12:36:19;9.93;;;7.93;;
23490;SDS011;14683;50.038;8.078;2023-06-22T12:39:20;9.70;;;7.55;;
23490;SDS011;14683;50.038;8.078;2023-06-22T12:42:21;9.35;;;7.70;;
23490;SDS011;14683;50.038;8.078;2023-06-22T12:45:23;9.13;;;7.10;;
23490;SDS011;14683;50.038;8.078;2023-06-22T12:48:28;10.05;;;7.35;;
23490;SDS011;14683;50.038;8.078;2023-06-22T12:51:30;12.52;;;6.95;;
23490;SDS011;14683;50.038;8.078;2023-06-22T12:54:31;8.55;;;7.50;;
23490;SDS011;14683;50.038;8.078;2023-06-22T12:57:32;9.00;;;7.10;;
23490;SDS011;14683;50.038;8.078;2023-06-22T13:00:33;7.18;;;6.30;;
23490;SDS011;14683;50.038;8.078;2023-06-22T13:03:34;9.05;;;6.20;;
23490;SDS011;14683;50.038;8.078;2023-06-22T13:06:35;10.07;;;7.00;;
23490;SDS011;14683;50.038;8.078;2023-06-22T13:09:36;9.00;;;6.75;;
23490;SDS011;14683;50.038;8.078;2023-06-22T13:12:37;10.20;;;6.57;;
23490;SDS011;14683;50.038;8.078;2023-06-22T13:15:39;7.68;;;6.63;;
23490;SDS011;14683;50.038;8.078;2023-06-22T13:18:40;11.18;;;7.57;;
23490;SDS011;14683;50.038;8.078;2023-06-22T13:21:41;7.72;;;6.47;;
23490;SDS011;14683;50.038;8.078;2023-06-22T13:24:42;8.75;;;6.57;;
23490;SDS011;14683;50.038;8.078;2023-06-22T13:27:43;9.18;;;7.25;;
23490;SDS011;14683;50.038;8.078;2023-06-22T13:30:44;8.85;;;6.45;;
23490;SDS011;14683;50.038;8.078;2023-06-22T13:33:47;10.20;;;6.80;;
23490;SDS011;14683;50.038;8.078;2023-06-22T13:36:49;11.98;;;6.40;;
23490;SDS011;14683;50.038;8.078;2023-06-22T13:39:50;8.57;;;6.00;;
23490;SDS011;14683;50.038;8.078;2023-06-22T13:42:51;10.95;;;6.75;;
23490;SDS011;14683;50.038;8.078;2023-06-22T13:45:53;8.82;;;5.85;;
23490;SDS011;14683;50.038;8.078;2023-06-22T13:48:54;11.63;;;6.25;;
23490;SDS011;14683;50.038;8.078;2023-06-22T13:51:55;8.05;;;4.80;;
23490;SDS011;14683;50.038;8.078;2023-06-22T13:54:56;7.97;;;5.68;;
23490;SDS011;14683;50.038;8.078;2023-06-22T13:57:57;7.55;;;5.43;;
23490;SDS011;14683;50.038;8.078;2023-06-22T14:00:58;10.18;;;5.72;;
23490;SDS011;14683;50.038;8.078;2023-06-22T14:03:59;10.35;;;5.40;;
23490;SDS011;14683;50.038;8.078;2023-06-22T14:07:02;11.00;;;5.43;;
23490;SDS011;14683;50.038;8.078;2023-06-22T14:10:03;10.13;;;5.30;;
23490;SDS011;14683;50.038;8.078;2023-06-22T14:13:05;11.93;;;5.75;;
23490;SDS011;14683;50.038;8.078;2023-06-22T14:16:09;10.98;;;5.35;;
23490;SDS011;14683;50.038;8.078;2023-06-22T14:19:10;9.23;;;5.45;;
23490;SDS011;14683;50.038;8.078;2023-06-22T14:22:11;10.15;;;5.75;;
23490;SDS011;14683;50.038;8.078;2023-06-22T14:25:12;10.32;;;5.72;;
23490;SDS011;14683;50.038;8.078;2023-06-22T14:28:13;14.57;;;6.10;;
23490;SDS011;14683;50.038;8.078;2023-06-22T14:31:15;12.75;;;5.75;;
23490;SDS011;14683;50.038;8.078;2023-06-22T14:34:16;11.45;;;5.38;;
23490;SDS011;14683;50.038;8.078;2023-06-22T14:37:18;10.25;;;5.20;;
23490;SDS011;14683;50.038;8.078;2023-06-22T14:40:19;10.30;;;5.20;;
23490;SDS011;14683;50.038;8.078;2023-06-22T14:43:20;19.17;;;5.57;;
23490;SDS011;14683;50.038;8.078;2023-06-22T14:46:21;10.32;;;4.95;;
23490;SDS011;14683;50.038;8.078;2023-06-22T14:49:22;9.13;;;5.20;;
23490;SDS011;14683;50.038;8.078;2023-06-22T14:52:24;15.98;;;5.60;;
23490;SDS011;14683;50.038;8.078;2023-06-22T14:55:25;10.82;;;5.43;;
23490;SDS011;14683;50.038;8.078;2023-06-22T14:58:26;10.80;;;4.78;;
23490;SDS011;14683;50.038;8.078;2023-06-22T15:01:27;9.57;;;4.68;;
23490;SDS011;14683;50.038;8.078;2023-06-22T15:04:28;10.88;;;5.13;;
23490;SDS011;14683;50.038;8.078;2023-06-22T15:07:35;12.13;;;5.47;;
23490;SDS011;14683;50.038;8.078;2023-06-22T15:10:36;14.40;;;4.78;;
23490;SDS011;14683;50.038;8.078;2023-06-22T15:13:41;10.35;;;4.88;;
23490;SDS011;14683;50.038;8.078;2023-06-22T15:16:42;13.00;;;5.22;;
23490;SDS011;14683;50.038;8.078;2023-06-22T15:19:43;9.95;;;4.88;;
23490;SDS011;14683;50.038;8.078;2023-06-22T15:22:44;11.30;;;5.30;;
23490;SDS011;14683;50.038;8.078;2023-06-22T15:25:46;13.30;;;5.22;;
23490;SDS011;14683;50.038;8.078;2023-06-22T15:28:47;14.50;;;5.28;;
23490;SDS011;14683;50.038;8.078;2023-06-22T15:31:48;14.65;;;4.88;;
23490;SDS011;14683;50.038;8.078;2023-06-22T15:34:49;19.27;;;5.65;;
23490;SDS011;14683;50.038;8.078;2023-06-22T15:37:54;20.33;;;5.50;;
23490;SDS011;14683;50.038;8.078;2023-06-22T15:40:55;14.80;;;4.82;;
23490;SDS011;14683;50.038;8.078;2023-06-22T15:43:56;12.82;;;4.10;;
23490;SDS011;14683;50.038;8.078;2023-06-22T15:46:57;15.65;;;4.40;;
23490;SDS011;14683;50.038;8.078;2023-06-22T15:49:59;7.80;;;4.32;;
23490;SDS011;14683;50.038;8.078;2023-06-22T15:53:00;8.48;;;3.72;;
23490;SDS011;14683;50.038;8.078;2023-06-22T15:56:01;7.38;;;3.67;;
23490;SDS011;14683;50.038;8.078;2023-06-22T15:59:02;11.20;;;3.55;;
23490;SDS011;14683;50.038;8.078;2023-06-22T16:02:03;5.68;;;3.25;;
23490;SDS011;14683;50.038;8.078;2023-06-22T16:05:05;7.10;;;3.33;;
23490;SDS011;14683;50.038;8.078;2023-06-22T16:08:10;10.68;;;3.65;;
23490;SDS011;14683;50.038;8.078;2023-06-22T16:11:14;9.88;;;3.80;;
23490;SDS011;14683;50.038;8.078;2023-06-22T16:14:15;8.45;;;3.35;;
23490;SDS011;14683;50.038;8.078;2023-06-22T16:17:17;5.43;;;3.35;;
23490;SDS011;14683;50.038;8.078;2023-06-22T16:20:18;6.80;;;3.40;;
23490;SDS011;14683;50.038;8.078;2023-06-22T16:23:22;10.18;;;3.80;;
23490;SDS011;14683;50.038;8.078;2023-06-22T16:26:23;9.68;;;4.22;;
23490;SDS011;14683;50.038;8.078;2023-06-22T16:29:24;5.93;;;3.58;;
23490;SDS011;14683;50.038;8.078;2023-06-22T16:32:25;7.75;;;4.10;;
23490;SDS011;14683;50.038;8.078;2023-06-22T16:35:27;8.90;;;4.20;;
23490;SDS011;14683;50.038;8.078;2023-06-22T16:38:29;9.70;;;4.28;;
23490;SDS011;14683;50.038;8.078;2023-06-22T16:41:30;8.18;;;3.75;;
23490;SDS011;14683;50.038;8.078;2023-06-22T16:44:32;7.10;;;4.13;;
23490;SDS011;14683;50.038;8.078;2023-06-22T16:47:33;11.23;;;4.20;;
23490;SDS011;14683;50.038;8.078;2023-06-22T16:50:35;7.07;;;3.80;;
23490;SDS011;14683;50.038;8.078;2023-06-22T16:53:36;6.95;;;3.70;;
23490;SDS011;14683;50.038;8.078;2023-06-22T16:56:38;6.75;;;3.78;;
23490;SDS011;14683;50.038;8.078;2023-06-22T16:59:39;10.48;;;4.13;;
23490;SDS011;14683;50.038;8.078;2023-06-22T17:02:50;8.77;;;3.95;;
23490;SDS011;14683;50.038;8.078;2023-06-22T17:05:53;6.85;;;3.42;;
23490;SDS011;14683;50.038;8.078;2023-06-22T17:08:56;5.35;;;3.13;;
23490;SDS011;14683;50.038;8.078;2023-06-22T17:12:00;12.02;;;4.18;;
23490;SDS011;14683;50.038;8.078;2023-06-22T17:15:02;9.05;;;3.75;;
23490;SDS011;14683;50.038;8.078;2023-06-22T17:18:04;8.10;;;4.10;;
23490;SDS011;14683;50.038;8.078;2023-06-22T17:21:06;9.07;;;3.78;;
23490;SDS011;14683;50.038;8.078;2023-06-22T17:24:07;6.22;;;3.65;;
23490;SDS011;14683;50.038;8.078;2023-06-22T17:27:09;8.32;;;3.83;;
23490;SDS011;14683;50.038;8.078;2023-06-22T17:30:11;9.23;;;3.65;;
23490;SDS011;14683;50.038;8.078;2023-06-22T17:33:18;3.55;;;2.58;;
23490;SDS011;14683;50.038;8.078;2023-06-22T17:36:23;7.20;;;3.53;;
23490;SDS011;14683;50.038;8.078;2023-06-22T17:39:27;10.88;;;4.78;;
23490;SDS011;14683;50.038;8.078;2023-06-22T17:42:29;9.10;;;4.30;;
23490;SDS011;14683;50.038;8.078;2023-06-22T17:45:30;9.30;;;3.80;;
23490;SDS011;14683;50.038;8.078;2023-06-22T17:48:31;9.98;;;3.45;;
23490;SDS011;14683;50.038;8.078;2023-06-22T17:51:33;6.75;;;3.10;;
23490;SDS011;14683;50.038;8.078;2023-06-22T17:54:34;7.65;;;2.60;;
23490;SDS011;14683;50.038;8.078;2023-06-22T17:57:38;4.43;;;2.75;;
23490;SDS011;14683;50.038;8.078;2023-06-22T18:00:40;4.63;;;2.70;;
23490;SDS011;14683;50.038;8.078;2023-06-22T18:03:43;7.63;;;2.75;;
23490;SDS011;14683;50.038;8.078;2023-06-22T18:06:45;6.43;;;2.67;;
23490;SDS011;14683;50.038;8.078;2023-06-22T18:09:47;4.80;;;2.63;;
23490;SDS011;14683;50.038;8.078;2023-06-22T18:12:48;5.18;;;2.17;;
23490;SDS011;14683;50.038;8.078;2023-06-22T18:15:50;5.10;;;2.80;;
23490;SDS011;14683;50.038;8.078;2023-06-22T18:18:52;4.72;;;2.33;;
23490;SDS011;14683;50.038;8.078;2023-06-22T18:21:53;4.07;;;2.70;;
23490;SDS011;14683;50.038;8.078;2023-06-22T18:24:55;5.15;;;2.72;;
23490;SDS011;14683;50.038;8.078;2023-06-22T18:27:56;4.07;;;2.42;;
23490;SDS011;14683;50.038;8.078;2023-06-22T18:30:58;5.22;;;2.22;;
23490;SDS011;14683;50.038;8.078;2023-06-22T18:33:59;5.97;;;2.78;;
23490;SDS011;14683;50.038;8.078;2023-06-22T18:37:00;3.40;;;1.88;;
23490;SDS011;14683;50.038;8.078;2023-06-22T18:40:04;2.45;;;2.10;;
23490;SDS011;14683;50.038;8.078;2023-06-22T18:43:08;4.93;;;2.20;;
23490;SDS011;14683;50.038;8.078;2023-06-22T18:49:30;2.55;;;1.52;;
23490;SDS011;14683;50.038;8.078;2023-06-22T18:52:33;2.17;;;1.67;;
23490;SDS011;14683;50.038;8.078;2023-06-22T18:55:36;3.83;;;1.75;;
23490;SDS011;14683;50.038;8.078;2023-06-22T18:58:37;3.15;;;1.35;;
23490;SDS011;14683;50.038;8.078;2023-06-22T19:01:38;1.40;;;1.30;;
23490;SDS011;14683;50.038;8.078;2023-06-22T19:04:43;2.55;;;1.40;;
23490;SDS011;14683;50.038;8.078;2023-06-22T19:10:52;1.60;;;1.00;;
23490;SDS011;14683;50.038;8.078;2023-06-22T19:13:53;2.88;;;0.88;;
23490;SDS011;14683;50.038;8.078;2023-06-22T19:16:58;0.80;;;0.70;;
23490;SDS011;14683;50.038;8.078;2023-06-22T19:20:00;3.75;;;0.75;;
23490;SDS011;14683;50.038;8.078;2023-06-22T19:23:06;3.60;;;0.70;;
23490;SDS011;14683;50.038;8.078;2023-06-22T19:26:25;0.60;;;0.60;;
23490;SDS011;14683;50.038;8.078;2023-06-22T19:29:26;1.10;;;0.50;;
23490;SDS011;14683;50.038;8.078;2023-06-22T19:32:28;2.88;;;0.75;;
23490;SDS011;14683;50.038;8.078;2023-06-22T19:35:29;1.08;;;0.50;;
23490;SDS011;14683;50.038;8.078;2023-06-22T19:38:32;1.50;;;0.52;;
23490;SDS011;14683;50.038;8.078;2023-06-22T19:41:34;1.15;;;0.70;;
23490;SDS011;14683;50.038;8.078;2023-06-22T19:44:35;2.28;;;0.55;;
23490;SDS011;14683;50.038;8.078;2023-06-22T19:47:36;1.17;;;0.85;;
23490;SDS011;14683;50.038;8.078;2023-06-22T19:50:39;1.23;;;0.80;;
23490;SDS011;14683;50.038;8.078;2023-06-22T19:53:41;1.73;;;0.65;;
23490;SDS011;14683;50.038;8.078;2023-06-22T19:56:44;0.75;;;0.75;;
23490;SDS011;14683;50.038;8.078;2023-06-22T19:59:45;0.75;;;0.63;;
23490;SDS011;14683;50.038;8.078;2023-06-22T20:02:49;0.40;;;0.40;;
23490;SDS011;14683;50.038;8.078;2023-06-22T20:05:51;1.02;;;0.60;;
23490;SDS011;14683;50.038;8.078;2023-06-22T20:08:55;1.23;;;0.60;;
23490;SDS011;14683;50.038;8.078;2023-06-22T20:11:59;1.67;;;0.50;;
23490;SDS011;14683;50.038;8.078;2023-06-22T20:18:24;1.60;;;0.60;;
23490;SDS011;14683;50.038;8.078;2023-06-22T20:21:27;1.30;;;0.40;;
23490;SDS011;14683;50.038;8.078;2023-06-22T20:24:30;1.40;;;0.52;;
23490;SDS011;14683;50.038;8.078;2023-06-22T20:27:31;0.57;;;0.40;;
23490;SDS011;14683;50.038;8.078;2023-06-22T20:30:36;0.52;;;0.52;;
23490;SDS011;14683;50.038;8.078;2023-06-22T20:33:42;0.43;;;0.40;;
23490;SDS011;14683;50.038;8.078;2023-06-22T20:36:43;0.63;;;0.30;;
23490;SDS011;14683;50.038;8.078;2023-06-22T20:39:44;0.28;;;0.28;;
23490;SDS011;14683;50.038;8.078;2023-06-22T20:42:46;0.38;;;0.38;;
23490;SDS011;14683;50.038;8.078;2023-06-22T20:45:47;0.40;;;0.40;;
23490;SDS011;14683;50.038;8.078;2023-06-22T20:48:48;0.40;;;0.40;;
23490;SDS011;14683;50.038;8.078;2023-06-22T20:51:50;0.43;;;0.35;;
23490;SDS011;14683;50.038;8.078;2023-06-22T20:54:51;1.10;;;0.30;;
23490;SDS011;14683;50.038;8.078;2023-06-22T20:57:53;0.20;;;0.20;;
